sensor_id;sensor_type;location;lat;lon;timestamp;pressure;altitude;pressure_sealevel;temperature;humidity
1371;BME280;14306;49.942;11.570;2023-02-18T00:01:35;98099.91;;;11.76;95.57
1371;BME280;14306;49.942;11.570;2023-02-18T00:04:05;98102.75;;;11.84;94.43
1371;BME280;14306;49.942;11.570;2023-02-18T00:06:35;98093.97;;;11.74;95.34
1371;BME280;14306;49.942;11.570;2023-02-18T00:09:05;98102.69;;;11.71;95.40
1371;BME280;14306;49.942;11.570;2023-02-18T00:11:36;98103.28;;;11.87;94.75
1371;BME280;14306;49.942;11.570;2023-02-18T00:14:07;98097.34;;;11.84;94.73
1371;BME280;14306;49.942;11.570;2023-02-18T00:16:36;98095.69;;;11.46;95.69
1371;BME280;14306;49.942;11.570;2023-02-18T00:19:09;98095.75;;;11.65;95.13
1371;BME280;14306;49.942;11.570;2023-02-18T00:21:38;98106.06;;;11.63;94.88
1371;BME280;14306;49.942;11.570;2023-02-18T00:24:06;98101.28;;;11.55;96.03
1371;BME280;14306;49.942;11.570;2023-02-18T00:26:35;98100.94;;;11.80;94.74
1371;BME280;14306;49.942;11.570;2023-02-18T00:29:03;98104.59;;;11.70;95.36
1371;BME280;14306;49.942;11.570;2023-02-18T00:31:34;98106.16;;;11.76;95.59
1371;BME280;14306;49.942;11.570;2023-02-18T00:34:04;98100.28;;;11.69;95.49
1371;BME280;14306;49.942;11.570;2023-02-18T00:36:34;98105.41;;;11.89;95.54
1371;BME280;14306;49.942;11.570;2023-02-18T00:39:04;98090.97;;;11.75;95.03
1371;BME280;14306;49.942;11.570;2023-02-18T00:41:34;98105.84;;;11.78;94.97
1371;BME280;14306;49.942;11.570;2023-02-18T00:44:03;98098.31;;;11.51;95.67
1371;BME280;14306;49.942;11.570;2023-02-18T00:46:31;98098.28;;;11.56;95.69
1371;BME280;14306;49.942;11.570;2023-02-18T00:49:00;98086.56;;;11.61;95.91
1371;BME280;14306;49.942;11.570;2023-02-18T00:51:29;98088.41;;;11.65;95.42
1371;BME280;14306;49.942;11.570;2023-02-18T00:53:58;98088.47;;;11.60;95.46
1371;BME280;14306;49.942;11.570;2023-02-18T00:56:27;98081.00;;;11.71;95.60
1371;BME280;14306;49.942;11.570;2023-02-18T00:58:55;98091.66;;;11.44;94.85
1371;BME280;14306;49.942;11.570;2023-02-18T01:01:23;98075.56;;;11.71;94.94
1371;BME280;14306;49.942;11.570;2023-02-18T01:03:53;98081.53;;;11.73;94.75
1371;BME280;14306;49.942;11.570;2023-02-18T01:06:21;98074.34;;;11.58;95.26
1371;BME280;14306;49.942;11.570;2023-02-18T01:08:50;98071.56;;;11.45;95.29
1371;BME280;14306;49.942;11.570;2023-02-18T01:11:21;98076.06;;;11.36;95.80
1371;BME280;14306;49.942;11.570;2023-02-18T01:13:49;98075.25;;;11.54;95.94
1371;BME280;14306;49.942;11.570;2023-02-18T01:16:17;98067.84;;;11.41;95.03
1371;BME280;14306;49.942;11.570;2023-02-18T01:18:46;98074.84;;;11.23;95.39
1371;BME280;14306;49.942;11.570;2023-02-18T01:21:14;98057.19;;;11.26;94.67
1371;BME280;14306;49.942;11.570;2023-02-18T01:23:42;98077.72;;;11.32;94.76
1371;BME280;14306;49.942;11.570;2023-02-18T01:26:11;98084.19;;;11.36;94.75
1371;BME280;14306;49.942;11.570;2023-02-18T01:28:40;98073.13;;;11.32;94.51
1371;BME280;14306;49.942;11.570;2023-02-18T01:31:10;98073.84;;;11.38;94.09
1371;BME280;14306;49.942;11.570;2023-02-18T01:33:39;98073.53;;;11.39;94.56
1371;BME280;14306;49.942;11.570;2023-02-18T01:36:08;98091.06;;;11.28;94.97
1371;BME280;14306;49.942;11.570;2023-02-18T01:38:37;98096.09;;;11.16;95.10
1371;BME280;14306;49.942;11.570;2023-02-18T01:41:06;98088.13;;;11.25;94.34
1371;BME280;14306;49.942;11.570;2023-02-18T01:43:34;98098.50;;;11.18;95.09
1371;BME280;14306;49.942;11.570;2023-02-18T01:46:16;98093.63;;;11.20;95.11
1371;BME280;14306;49.942;11.570;2023-02-18T01:48:49;98087.75;;;11.13;95.01
1371;BME280;14306;49.942;11.570;2023-02-18T01:51:21;98093.63;;;11.20;95.46
1371;BME280;14306;49.942;11.570;2023-02-18T01:53:54;98093.19;;;11.31;94.88
1371;BME280;14306;49.942;11.570;2023-02-18T01:56:27;98101.31;;;11.31;95.27
1371;BME280;14306;49.942;11.570;2023-02-18T01:58:59;98087.56;;;11.46;94.96
1371;BME280;14306;49.942;11.570;2023-02-18T02:01:30;98082.88;;;11.52;94.36
1371;BME280;14306;49.942;11.570;2023-02-18T02:03:59;98061.97;;;11.34;94.50
1371;BME280;14306;49.942;11.570;2023-02-18T02:06:27;98070.53;;;11.41;94.61
1371;BME280;14306;49.942;11.570;2023-02-18T02:09:03;98071.72;;;11.53;94.52
1371;BME280;14306;49.942;11.570;2023-02-18T02:11:44;98069.00;;;11.53;94.67
1371;BME280;14306;49.942;11.570;2023-02-18T02:14:23;98073.44;;;11.68;94.58
1371;BME280;14306;49.942;11.570;2023-02-18T02:17:02;98063.81;;;11.57;94.83
1371;BME280;14306;49.942;11.570;2023-02-18T02:26:35;98062.44;;;11.59;94.99
1371;BME280;14306;49.942;11.570;2023-02-18T02:35:28;98062.88;;;11.85;94.33
1371;BME280;14306;49.942;11.570;2023-02-18T02:38:01;98065.66;;;11.80;94.04
1371;BME280;14306;49.942;11.570;2023-02-18T02:40:37;98062.19;;;11.74;94.59
1371;BME280;14306;49.942;11.570;2023-02-18T02:43:17;98055.53;;;11.85;94.54
1371;BME280;14306;49.942;11.570;2023-02-18T02:45:53;98055.88;;;11.98;93.72
1371;BME280;14306;49.942;11.570;2023-02-18T02:48:28;98057.94;;;11.87;94.30
1371;BME280;14306;49.942;11.570;2023-02-18T02:51:05;98050.75;;;11.77;94.63
1371;BME280;14306;49.942;11.570;2023-02-18T02:53:36;98049.50;;;11.88;94.45
1371;BME280;14306;49.942;11.570;2023-02-18T02:56:12;98046.66;;;11.80;93.68
1371;BME280;14306;49.942;11.570;2023-02-18T02:58:41;98045.28;;;11.82;93.95
1371;BME280;14306;49.942;11.570;2023-02-18T03:01:24;98038.53;;;11.61;94.75
1371;BME280;14306;49.942;11.570;2023-02-18T03:04:21;98042.06;;;11.62;95.01
1371;BME280;14306;49.942;11.570;2023-02-18T03:07:05;98038.34;;;11.53;94.89
1371;BME280;14306;49.942;11.570;2023-02-18T03:09:44;98045.56;;;11.62;94.72
1371;BME280;14306;49.942;11.570;2023-02-18T03:12:23;98046.09;;;11.64;94.26
1371;BME280;14306;49.942;11.570;2023-02-18T03:14:58;98053.28;;;11.74;94.08
1371;BME280;14306;49.942;11.570;2023-02-18T03:17:31;98053.59;;;11.49;94.65
1371;BME280;14306;49.942;11.570;2023-02-18T03:20:07;98049.59;;;11.46;94.56
1371;BME280;14306;49.942;11.570;2023-02-18T03:22:42;98042.09;;;11.38;94.92
1371;BME280;14306;49.942;11.570;2023-02-18T03:25:12;98052.00;;;11.48;95.54
1371;BME280;14306;49.942;11.570;2023-02-18T03:27:44;98046.72;;;11.56;94.38
1371;BME280;14306;49.942;11.570;2023-02-18T03:30:16;98045.28;;;11.45;94.69
1371;BME280;14306;49.942;11.570;2023-02-18T03:32:51;98056.03;;;11.50;94.75
1371;BME280;14306;49.942;11.570;2023-02-18T03:35:22;98046.59;;;11.48;95.21
1371;BME280;14306;49.942;11.570;2023-02-18T03:37:56;98048.41;;;11.52;95.13
1371;BME280;14306;49.942;11.570;2023-02-18T03:40:27;98050.31;;;11.52;94.58
1371;BME280;14306;49.942;11.570;2023-02-18T03:42:56;98053.72;;;11.62;94.84
1371;BME280;14306;49.942;11.570;2023-02-18T03:45:25;98045.91;;;11.56;94.52
1371;BME280;14306;49.942;11.570;2023-02-18T03:47:53;98048.63;;;11.74;94.70
1371;BME280;14306;49.942;11.570;2023-02-18T03:50:22;98043.44;;;11.59;95.27
1371;BME280;14306;49.942;11.570;2023-02-18T03:52:51;98051.53;;;11.64;94.77
1371;BME280;14306;49.942;11.570;2023-02-18T03:55:20;98055.53;;;11.85;94.12
1371;BME280;14306;49.942;11.570;2023-02-18T03:57:48;98052.66;;;11.58;95.07
1371;BME280;14306;49.942;11.570;2023-02-18T04:00:17;98041.59;;;11.73;94.99
1371;BME280;14306;49.942;11.570;2023-02-18T04:02:46;98044.41;;;12.01;94.23
1371;BME280;14306;49.942;11.570;2023-02-18T04:05:14;98055.41;;;11.77;94.40
1371;BME280;14306;49.942;11.570;2023-02-18T04:07:43;98055.53;;;11.85;94.33
1371;BME280;14306;49.942;11.570;2023-02-18T04:10:12;98040.72;;;11.78;93.42
1371;BME280;14306;49.942;11.570;2023-02-18T04:12:40;98047.69;;;11.65;94.53
1371;BME280;14306;49.942;11.570;2023-02-18T04:15:08;98053.72;;;11.81;94.30
1371;BME280;14306;49.942;11.570;2023-02-18T04:17:37;98052.44;;;11.92;94.32
1371;BME280;14306;49.942;11.570;2023-02-18T04:20:06;98050.13;;;11.67;94.43
1371;BME280;14306;49.942;11.570;2023-02-18T04:22:34;98040.13;;;11.81;94.22
1371;BME280;14306;49.942;11.570;2023-02-18T04:25:03;98060.22;;;11.80;94.30
1371;BME280;14306;49.942;11.570;2023-02-18T04:27:32;98063.25;;;11.78;94.63
1371;BME280;14306;49.942;11.570;2023-02-18T04:30:01;98062.88;;;11.66;94.35
1371;BME280;14306;49.942;11.570;2023-02-18T04:32:30;98067.34;;;11.76;94.63
1371;BME280;14306;49.942;11.570;2023-02-18T04:34:58;98069.69;;;11.82;94.62
1371;BME280;14306;49.942;11.570;2023-02-18T04:37:26;98063.47;;;11.82;94.78
1371;BME280;14306;49.942;11.570;2023-02-18T04:39:54;98067.56;;;11.79;94.58
1371;BME280;14306;49.942;11.570;2023-02-18T04:42:22;98068.75;;;11.73;95.79
1371;BME280;14306;49.942;11.570;2023-02-18T04:44:52;98070.03;;;11.95;94.42
1371;BME280;14306;49.942;11.570;2023-02-18T04:47:20;98064.31;;;11.96;94.23
1371;BME280;14306;49.942;11.570;2023-02-18T04:49:49;98061.38;;;11.93;93.73
1371;BME280;14306;49.942;11.570;2023-02-18T04:52:17;98066.66;;;12.03;93.47
1371;BME280;14306;49.942;11.570;2023-02-18T04:54:46;98073.00;;;11.79;93.68
1371;BME280;14306;49.942;11.570;2023-02-18T04:57:14;98069.31;;;11.89;94.36
1371;BME280;14306;49.942;11.570;2023-02-18T04:59:42;98077.16;;;11.91;93.54
1371;BME280;14306;49.942;11.570;2023-02-18T05:02:12;98075.63;;;12.17;93.64
1371;BME280;14306;49.942;11.570;2023-02-18T05:04:40;98069.97;;;12.00;93.85
1371;BME280;14306;49.942;11.570;2023-02-18T05:07:08;98068.31;;;11.85;94.41
1371;BME280;14306;49.942;11.570;2023-02-18T05:09:38;98070.28;;;11.79;93.96
1371;BME280;14306;49.942;11.570;2023-02-18T05:12:06;98063.38;;;11.87;93.91
1371;BME280;14306;49.942;11.570;2023-02-18T05:14:34;98043.63;;;11.81;94.11
1371;BME280;14306;49.942;11.570;2023-02-18T05:17:03;98049.97;;;11.77;94.38
1371;BME280;14306;49.942;11.570;2023-02-18T05:19:33;98040.09;;;11.67;93.63
1371;BME280;14306;49.942;11.570;2023-02-18T05:22:01;98030.69;;;11.78;93.45
1371;BME280;14306;49.942;11.570;2023-02-18T05:24:29;98032.28;;;11.79;93.31
1371;BME280;14306;49.942;11.570;2023-02-18T05:26:58;98027.09;;;11.64;93.59
1371;BME280;14306;49.942;11.570;2023-02-18T05:29:26;98018.88;;;11.69;93.00
1371;BME280;14306;49.942;11.570;2023-02-18T05:31:55;98010.34;;;11.57;93.32
1371;BME280;14306;49.942;11.570;2023-02-18T05:34:24;98014.97;;;11.57;93.43
1371;BME280;14306;49.942;11.570;2023-02-18T05:36:54;98021.88;;;11.49;93.06
1371;BME280;14306;49.942;11.570;2023-02-18T05:39:22;98027.81;;;11.51;92.59
1371;BME280;14306;49.942;11.570;2023-02-18T05:41:50;98027.69;;;11.61;92.55
1371;BME280;14306;49.942;11.570;2023-02-18T05:44:19;98017.84;;;11.47;93.17
1371;BME280;14306;49.942;11.570;2023-02-18T05:47:01;98032.59;;;11.59;92.58
1371;BME280;14306;49.942;11.570;2023-02-18T05:49:31;98020.78;;;11.50;92.00
1371;BME280;14306;49.942;11.570;2023-02-18T05:52:02;98014.13;;;11.43;92.28
1371;BME280;14306;49.942;11.570;2023-02-18T05:54:30;98017.03;;;11.46;92.30
1371;BME280;14306;49.942;11.570;2023-02-18T05:56:59;98012.88;;;11.54;91.71
1371;BME280;14306;49.942;11.570;2023-02-18T05:59:27;98007.28;;;11.45;92.36
1371;BME280;14306;49.942;11.570;2023-02-18T06:01:57;98009.28;;;11.77;90.98
1371;BME280;14306;49.942;11.570;2023-02-18T06:04:26;98013.44;;;11.69;90.71
1371;BME280;14306;49.942;11.570;2023-02-18T06:06:54;98012.44;;;11.65;91.34
1371;BME280;14306;49.942;11.570;2023-02-18T06:09:24;98003.84;;;11.77;91.13
1371;BME280;14306;49.942;11.570;2023-02-18T06:11:53;98002.72;;;11.78;91.05
1371;BME280;14306;49.942;11.570;2023-02-18T06:14:21;98003.56;;;11.78;90.44
1371;BME280;14306;49.942;11.570;2023-02-18T06:16:50;97997.75;;;11.66;90.95
1371;BME280;14306;49.942;11.570;2023-02-18T06:19:21;98002.88;;;11.68;91.86
1371;BME280;14306;49.942;11.570;2023-02-18T06:21:50;97994.53;;;11.64;91.43
1371;BME280;14306;49.942;11.570;2023-02-18T06:24:18;97995.13;;;11.61;91.86
1371;BME280;14306;49.942;11.570;2023-02-18T06:26:48;98000.78;;;11.65;90.10
1371;BME280;14306;49.942;11.570;2023-02-18T06:29:16;97994.69;;;11.73;91.66
1371;BME280;14306;49.942;11.570;2023-02-18T06:31:44;97993.34;;;11.70;90.30
1371;BME280;14306;49.942;11.570;2023-02-18T06:34:13;97996.59;;;11.72;91.38
1371;BME280;14306;49.942;11.570;2023-02-18T06:36:41;97991.72;;;11.88;91.18
1371;BME280;14306;49.942;11.570;2023-02-18T06:39:09;97989.47;;;11.76;90.52
1371;BME280;14306;49.942;11.570;2023-02-18T06:41:38;97984.41;;;11.70;91.79
1371;BME280;14306;49.942;11.570;2023-02-18T06:44:07;97987.28;;;11.78;91.83
1371;BME280;14306;49.942;11.570;2023-02-18T06:46:37;97975.53;;;11.97;90.72
1371;BME280;14306;49.942;11.570;2023-02-18T06:49:05;97974.88;;;11.72;93.12
1371;BME280;14306;49.942;11.570;2023-02-18T06:51:34;97968.22;;;11.97;91.34
1371;BME280;14306;49.942;11.570;2023-02-18T06:54:02;97974.16;;;12.13;91.43
1371;BME280;14306;49.942;11.570;2023-02-18T06:56:32;97966.22;;;12.16;92.12
1371;BME280;14306;49.942;11.570;2023-02-18T06:59:00;97965.63;;;12.33;91.11
1371;BME280;14306;49.942;11.570;2023-02-18T07:01:29;97962.19;;;12.14;91.68
1371;BME280;14306;49.942;11.570;2023-02-18T07:03:58;97963.38;;;12.08;92.57
1371;BME280;14306;49.942;11.570;2023-02-18T07:06:26;97962.19;;;12.14;92.65
1371;BME280;14306;49.942;11.570;2023-02-18T07:08:54;97944.88;;;11.82;93.23
1371;BME280;14306;49.942;11.570;2023-02-18T07:11:23;97943.72;;;11.51;93.63
1371;BME280;14306;49.942;11.570;2023-02-18T07:13:52;97946.97;;;11.99;94.44
1371;BME280;14306;49.942;11.570;2023-02-18T07:16:20;97947.00;;;12.13;93.52
1371;BME280;14306;49.942;11.570;2023-02-18T07:18:50;97946.59;;;12.06;93.83
1371;BME280;14306;49.942;11.570;2023-02-18T07:21:18;97947.63;;;12.10;93.85
1371;BME280;14306;49.942;11.570;2023-02-18T07:23:47;97938.47;;;12.06;94.90
1371;BME280;14306;49.942;11.570;2023-02-18T07:26:15;97929.91;;;12.12;95.20
1371;BME280;14306;49.942;11.570;2023-02-18T07:28:44;97938.84;;;12.26;94.86
1371;BME280;14306;49.942;11.570;2023-02-18T07:31:12;97927.81;;;12.36;94.20
1371;BME280;14306;49.942;11.570;2023-02-18T07:33:41;97913.75;;;12.21;94.74
1371;BME280;14306;49.942;11.570;2023-02-18T07:36:10;97916.03;;;12.27;94.54
1371;BME280;14306;49.942;11.570;2023-02-18T07:38:38;97925.06;;;12.50;94.41
1371;BME280;14306;49.942;11.570;2023-02-18T07:41:15;97926.59;;;12.56;92.88
1371;BME280;14306;49.942;11.570;2023-02-18T07:43:44;97920.47;;;12.37;93.04
1371;BME280;14306;49.942;11.570;2023-02-18T07:46:12;97916.94;;;12.36;93.96
1371;BME280;14306;49.942;11.570;2023-02-18T07:48:40;97923.38;;;12.40;93.77
1371;BME280;14306;49.942;11.570;2023-02-18T07:51:11;97912.69;;;12.03;95.10
1371;BME280;14306;49.942;11.570;2023-02-18T07:53:39;97906.97;;;12.18;95.21
1371;BME280;14306;49.942;11.570;2023-02-18T07:56:07;97900.22;;;12.02;95.59
1371;BME280;14306;49.942;11.570;2023-02-18T07:58:37;97895.63;;;12.16;95.03
1371;BME280;14306;49.942;11.570;2023-02-18T08:01:06;97907.50;;;12.34;94.57
1371;BME280;14306;49.942;11.570;2023-02-18T08:03:35;97900.63;;;12.36;94.93
1371;BME280;14306;49.942;11.570;2023-02-18T08:06:05;97897.50;;;12.43;94.33
1371;BME280;14306;49.942;11.570;2023-02-18T08:08:35;97915.31;;;12.62;94.85
1371;BME280;14306;49.942;11.570;2023-02-18T08:11:03;97906.34;;;12.48;94.69
1371;BME280;14306;49.942;11.570;2023-02-18T08:13:45;97909.69;;;12.18;95.20
1371;BME280;14306;49.942;11.570;2023-02-18T08:16:13;97908.97;;;12.26;94.38
1371;BME280;14306;49.942;11.570;2023-02-18T08:18:43;97906.97;;;12.18;94.88
1371;BME280;14306;49.942;11.570;2023-02-18T08:21:13;97903.34;;;12.50;94.08
1371;BME280;14306;49.942;11.570;2023-02-18T08:23:43;97903.06;;;12.11;94.20
1371;BME280;14306;49.942;11.570;2023-02-18T08:26:12;97901.53;;;12.18;93.58
1371;BME280;14306;49.942;11.570;2023-02-18T08:28:40;97901.84;;;12.03;93.80
1371;BME280;14306;49.942;11.570;2023-02-18T08:31:15;97905.19;;;12.41;91.99
1371;BME280;14306;49.942;11.570;2023-02-18T08:33:45;97897.13;;;12.09;92.49
1371;BME280;14306;49.942;11.570;2023-02-18T08:36:13;97900.34;;;12.38;92.85
1371;BME280;14306;49.942;11.570;2023-02-18T08:38:42;97887.78;;;12.15;92.39
1371;BME280;14306;49.942;11.570;2023-02-18T08:41:11;97867.66;;;12.29;90.75
1371;BME280;14306;49.942;11.570;2023-02-18T08:43:40;97887.66;;;12.47;90.93
1371;BME280;14306;49.942;11.570;2023-02-18T08:46:09;97878.13;;;12.71;90.33
1371;BME280;14306;49.942;11.570;2023-02-18T08:48:42;97878.09;;;12.98;89.51
1371;BME280;14306;49.942;11.570;2023-02-18T08:51:12;97877.38;;;12.93;88.36
1371;BME280;14306;49.942;11.570;2023-02-18T08:53:40;97871.22;;;13.01;87.74
1371;BME280;14306;49.942;11.570;2023-02-18T08:56:10;97868.53;;;13.23;87.49
1371;BME280;14306;49.942;11.570;2023-02-18T08:58:39;97862.16;;;13.49;87.44
1371;BME280;14306;49.942;11.570;2023-02-18T09:01:10;97866.16;;;13.52;86.84
1371;BME280;14306;49.942;11.570;2023-02-18T09:03:39;97873.75;;;13.94;84.42
1371;BME280;14306;49.942;11.570;2023-02-18T09:06:08;97870.13;;;14.07;83.38
1371;BME280;14306;49.942;11.570;2023-02-18T09:08:36;97880.34;;;14.32;80.18
1371;BME280;14306;49.942;11.570;2023-02-18T09:11:05;97872.13;;;14.23;80.85
1371;BME280;14306;49.942;11.570;2023-02-18T09:13:38;97881.28;;;14.27;81.77
1371;BME280;14306;49.942;11.570;2023-02-18T09:16:10;97876.19;;;14.04;81.91
1371;BME280;14306;49.942;11.570;2023-02-18T09:18:40;97883.41;;;14.47;81.96
1371;BME280;14306;49.942;11.570;2023-02-18T09:21:10;97896.59;;;13.54;79.11
1371;BME280;14306;49.942;11.570;2023-02-18T09:23:39;97886.41;;;13.98;80.88
1371;BME280;14306;49.942;11.570;2023-02-18T09:26:09;97891.47;;;13.83;79.86
1371;BME280;14306;49.942;11.570;2023-02-18T09:28:42;97896.31;;;13.86;80.85
1371;BME280;14306;49.942;11.570;2023-02-18T09:31:12;97893.50;;;14.08;79.23
1371;BME280;14306;49.942;11.570;2023-02-18T09:33:45;97892.03;;;14.24;76.94
1371;BME280;14306;49.942;11.570;2023-02-18T09:36:14;97905.38;;;14.03;77.61
1371;BME280;14306;49.942;11.570;2023-02-18T09:38:42;97900.47;;;14.70;77.47
1371;BME280;14306;49.942;11.570;2023-02-18T09:41:16;97902.72;;;14.76;76.08
1371;BME280;14306;49.942;11.570;2023-02-18T09:43:57;97899.09;;;14.33;78.82
1371;BME280;14306;49.942;11.570;2023-02-18T09:46:29;97876.38;;;14.07;77.66
1371;BME280;14306;49.942;11.570;2023-02-18T09:49:02;97889.75;;;13.87;80.10
1371;BME280;14306;49.942;11.570;2023-02-18T09:51:31;97889.88;;;13.82;78.98
1371;BME280;14306;49.942;11.570;2023-02-18T09:54:00;97887.56;;;13.67;77.82
1371;BME280;14306;49.942;11.570;2023-02-18T09:56:29;97878.66;;;13.53;77.13
1371;BME280;14306;49.942;11.570;2023-02-18T09:59:04;97869.34;;;13.45;78.04
1371;BME280;14306;49.942;11.570;2023-02-18T10:01:37;97875.09;;;13.74;77.12
1371;BME280;14306;49.942;11.570;2023-02-18T10:04:12;97861.53;;;13.83;75.30
1371;BME280;14306;49.942;11.570;2023-02-18T10:06:43;97863.44;;;13.82;75.34
1371;BME280;14306;49.942;11.570;2023-02-18T10:09:18;97858.84;;;13.61;76.82
1371;BME280;14306;49.942;11.570;2023-02-18T10:11:49;97860.28;;;13.89;75.98
1371;BME280;14306;49.942;11.570;2023-02-18T10:14:21;97859.41;;;14.10;74.28
1371;BME280;14306;49.942;11.570;2023-02-18T10:16:50;97862.06;;;14.24;75.76
1371;BME280;14306;49.942;11.570;2023-02-18T10:19:23;97854.84;;;14.36;74.75
1371;BME280;14306;49.942;11.570;2023-02-18T10:21:53;97855.72;;;14.15;76.30
